createdAt,value
2018-05-12T00:00:30.914Z,16.80
2018-05-12T00:01:30.851Z,15.40
2018-05-12T00:02:30.838Z,15.70
2018-05-12T00:03:30.793Z,15.90
2018-05-12T00:04:30.757Z,17.30
2018-05-12T00:05:30.725Z,18.70
2018-05-12T00:06:30.686Z,16.40
2018-05-12T00:07:30.643Z,16.70
2018-05-12T00:08:30.611Z,18.30
2018-05-12T00:09:30.580Z,17.20
2018-05-12T00:10:30.555Z,17.90
2018-05-12T00:11:30.531Z,18.60
2018-05-12T00:12:30.471Z,20.00
2018-05-12T00:13:30.441Z,18.10
2018-05-12T00:14:30.404Z,16.70
2018-05-12T00:15:30.380Z,19.90
2018-05-12T00:16:30.348Z,20.50
2018-05-12T00:17:30.303Z,22.00
2018-05-12T00:18:30.264Z,21.30
2018-05-12T00:19:30.256Z,19.30
2018-05-12T00:20:30.269Z,19.80
2018-05-12T00:21:30.192Z,18.20
2018-05-12T00:22:30.149Z,16.30
2018-05-12T00:23:30.106Z,20.00
2018-05-12T00:24:30.076Z,18.80
2018-05-12T00:25:30.041Z,19.90
2018-05-12T00:26:30.010Z,22.00
2018-05-12T00:27:29.974Z,23.80
2018-05-12T00:28:29.945Z,29.00
2018-05-12T00:29:29.918Z,18.30
2018-05-12T00:30:29.892Z,19.40
2018-05-12T00:31:29.849Z,21.40
2018-05-12T00:32:29.808Z,24.80
2018-05-12T00:33:29.754Z,29.40
2018-05-12T00:34:29.757Z,28.40
2018-05-12T00:35:29.713Z,23.70
2018-05-12T00:36:29.669Z,25.10
2018-05-12T00:37:29.626Z,28.40
2018-05-12T00:38:30.559Z,28.00
2018-05-12T00:39:29.557Z,29.00
2018-05-12T00:40:29.535Z,28.10
2018-05-12T00:41:29.483Z,27.60
2018-05-12T00:42:29.440Z,25.60
2018-05-12T00:43:29.430Z,26.70
2018-05-12T00:44:29.371Z,26.40
2018-05-12T00:45:29.333Z,26.30
2018-05-12T00:46:29.320Z,25.40
2018-05-12T00:47:29.280Z,27.10
2018-05-12T00:48:29.241Z,27.30
2018-05-12T00:49:29.204Z,26.60
2018-05-12T00:50:29.170Z,25.90
2018-05-12T00:51:29.133Z,28.30
2018-05-12T00:52:29.121Z,27.70
2018-05-12T00:53:29.092Z,28.30
2018-05-12T00:54:29.047Z,27.10
2018-05-12T00:55:29.008Z,27.50
2018-05-12T00:56:28.956Z,31.20
2018-05-12T00:57:28.930Z,28.90
2018-05-12T00:58:28.886Z,28.40
2018-05-12T00:59:28.849Z,28.50
2018-05-12T01:00:28.815Z,24.80
2018-05-12T01:01:28.800Z,27.70
2018-05-12T01:02:28.748Z,27.00
2018-05-12T01:03:28.737Z,26.90
2018-05-12T01:04:28.676Z,26.80
2018-05-12T01:05:28.645Z,25.90
2018-05-12T01:06:28.621Z,23.20
2018-05-12T01:07:28.574Z,22.80
2018-05-12T01:08:28.549Z,23.20
2018-05-12T01:09:28.505Z,23.20
2018-05-12T01:10:28.477Z,22.80
2018-05-12T01:11:28.434Z,23.20
2018-05-12T01:12:28.403Z,21.90
2018-05-12T01:13:28.422Z,23.90
2018-05-12T01:14:28.328Z,27.30
2018-05-12T01:15:28.318Z,29.90
2018-05-12T01:16:28.260Z,32.40
2018-05-12T01:17:28.237Z,30.30
2018-05-12T01:18:28.205Z,31.60
2018-05-12T01:19:28.154Z,26.50
2018-05-12T01:20:28.143Z,26.30
2018-05-12T01:21:28.104Z,26.90
2018-05-12T01:22:28.069Z,28.30
2018-05-12T01:23:28.057Z,29.30
2018-05-12T01:24:27.996Z,29.00
2018-05-12T01:25:27.967Z,28.20
2018-05-12T01:26:27.922Z,29.00
2018-05-12T01:27:27.896Z,28.90
2018-05-12T01:28:27.851Z,28.50
2018-05-12T01:29:27.826Z,30.40
2018-05-12T01:30:27.791Z,31.20
2018-05-12T01:31:27.763Z,31.30
2018-05-12T01:32:27.736Z,32.50
2018-05-12T01:33:27.692Z,33.60
2018-05-12T01:34:27.663Z,33.50
2018-05-12T01:35:27.633Z,33.80
2018-05-12T01:36:27.602Z,32.60
2018-05-12T01:37:27.573Z,32.60
2018-05-12T01:38:27.508Z,31.30
2018-05-12T01:39:27.474Z,29.30
2018-05-12T01:40:27.456Z,28.70
2018-05-12T01:41:27.405Z,26.90
2018-05-12T01:42:27.376Z,25.70
2018-05-12T01:43:27.347Z,29.00
2018-05-12T01:44:27.305Z,31.10
2018-05-12T01:45:27.273Z,28.40
2018-05-12T01:46:27.239Z,31.00
2018-05-12T01:47:27.203Z,29.80
2018-05-12T01:48:27.165Z,29.50
2018-05-12T01:49:27.130Z,28.70
2018-05-12T01:50:27.106Z,28.30
2018-05-12T01:51:27.057Z,29.90
2018-05-12T01:52:27.024Z,30.60
2018-05-12T01:53:26.996Z,33.70
2018-05-12T01:54:26.954Z,32.40
2018-05-12T01:55:26.930Z,30.00
2018-05-12T01:56:26.940Z,29.80
2018-05-12T01:57:26.871Z,29.10
2018-05-12T01:58:26.820Z,27.20
2018-05-12T01:59:26.797Z,27.40
2018-05-12T02:00:26.747Z,26.70
2018-05-12T02:01:26.726Z,25.50
2018-05-12T02:02:26.701Z,26.30
2018-05-12T02:03:26.661Z,28.80
2018-05-12T02:04:26.619Z,25.90
2018-05-12T02:05:26.567Z,26.60
2018-05-12T02:06:26.563Z,26.70
2018-05-12T02:07:26.513Z,22.90
2018-05-12T02:08:26.506Z,22.30
2018-05-12T02:09:26.442Z,22.10
2018-05-12T02:10:26.422Z,23.20
2018-05-12T02:11:26.378Z,22.50
2018-05-12T02:12:26.339Z,23.20
2018-05-12T02:13:26.315Z,23.90
2018-05-12T02:14:26.273Z,23.40
2018-05-12T02:15:26.242Z,23.10
2018-05-12T02:16:26.197Z,23.00
2018-05-12T02:17:26.161Z,23.40
2018-05-12T02:18:26.124Z,22.70
2018-05-12T02:19:26.097Z,22.70
2018-05-12T02:20:26.082Z,22.00
2018-05-12T02:21:26.057Z,22.70
2018-05-12T02:22:26.007Z,21.30
2018-05-12T02:23:25.972Z,22.10
2018-05-12T02:24:25.935Z,21.30
2018-05-12T02:25:25.895Z,21.60
2018-05-12T02:26:25.880Z,22.20
2018-05-12T02:27:25.840Z,22.30
2018-05-12T02:28:25.796Z,22.00
2018-05-12T02:29:25.786Z,22.60
2018-05-12T02:30:25.778Z,21.90
2018-05-12T02:31:25.691Z,22.10
2018-05-12T02:32:25.688Z,20.80
2018-05-12T02:33:25.630Z,23.00
2018-05-12T02:34:25.639Z,23.50
2018-05-12T02:35:25.562Z,22.20
2018-05-12T02:36:25.521Z,23.10
2018-05-12T02:37:25.479Z,24.10
2018-05-12T02:38:25.457Z,23.60
2018-05-12T02:39:25.485Z,25.00
2018-05-12T02:40:25.376Z,24.40
2018-05-12T02:41:25.345Z,24.40
2018-05-12T02:42:25.306Z,23.50
2018-05-12T02:43:25.293Z,26.50
2018-05-12T02:44:26.083Z,27.30
2018-05-12T02:45:25.207Z,28.40
2018-05-12T02:46:25.184Z,26.40
2018-05-12T02:47:25.128Z,23.90
2018-05-12T02:48:25.106Z,23.60
2018-05-12T02:49:25.069Z,23.70
2018-05-12T02:50:25.051Z,22.80
2018-05-12T02:51:25.004Z,21.60
2018-05-12T02:52:25.010Z,21.50
2018-05-12T02:53:24.982Z,23.10
2018-05-12T02:54:24.928Z,22.90
2018-05-12T02:55:24.869Z,23.00
2018-05-12T02:56:24.842Z,27.10
2018-05-12T02:57:24.792Z,24.40
2018-05-12T02:58:24.753Z,24.70
2018-05-12T02:59:24.733Z,25.10
2018-05-12T03:00:24.697Z,25.10
2018-05-12T03:01:24.661Z,25.00
2018-05-12T03:02:24.608Z,24.60
2018-05-12T03:03:24.601Z,25.30
2018-05-12T03:04:24.557Z,24.60
2018-05-12T03:05:24.541Z,24.40
2018-05-12T03:06:24.475Z,24.10
2018-05-12T03:07:24.461Z,24.50
2018-05-12T03:08:24.407Z,25.40
2018-05-12T03:09:24.364Z,26.50
2018-05-12T03:10:24.342Z,25.00
2018-05-12T03:11:24.319Z,25.20
2018-05-12T03:12:24.260Z,24.00
2018-05-12T03:13:24.242Z,24.50
2018-05-12T03:14:24.193Z,24.00
2018-05-12T03:15:24.160Z,24.70
2018-05-12T03:16:24.129Z,24.10
2018-05-12T03:17:24.095Z,24.10
2018-05-12T03:18:24.055Z,24.70
2018-05-12T03:19:24.040Z,25.10
2018-05-12T03:20:23.987Z,22.30
2018-05-12T03:21:23.960Z,24.80
2018-05-12T03:22:23.916Z,25.80
2018-05-12T03:23:23.876Z,24.70
2018-05-12T03:24:23.856Z,22.80
2018-05-12T03:25:23.810Z,22.90
2018-05-12T03:26:23.780Z,22.80
2018-05-12T03:27:23.748Z,23.60
2018-05-12T03:28:23.708Z,23.60
2018-05-12T03:29:23.680Z,24.50
2018-05-12T03:30:23.648Z,24.20
2018-05-12T03:31:23.606Z,23.00
2018-05-12T03:32:23.575Z,23.30
2018-05-12T03:33:23.564Z,23.20
2018-05-12T03:34:23.509Z,24.30
2018-05-12T03:35:23.469Z,23.30
2018-05-12T03:36:23.426Z,21.30
2018-05-12T03:37:23.392Z,23.00
2018-05-12T03:38:23.360Z,23.40
2018-05-12T03:39:23.324Z,24.60
2018-05-12T03:40:23.295Z,24.80
2018-05-12T03:41:23.250Z,24.90
2018-05-12T03:42:23.211Z,24.50
2018-05-12T03:43:23.174Z,21.90
2018-05-12T03:44:23.150Z,22.60
2018-05-12T03:45:23.112Z,24.00
2018-05-12T03:46:23.084Z,24.30
2018-05-12T03:47:23.590Z,25.30
2018-05-12T03:48:23.036Z,23.30
2018-05-12T03:49:22.979Z,22.60
2018-05-12T03:50:22.944Z,24.60
2018-05-12T03:51:22.900Z,25.10
2018-05-12T03:52:22.858Z,26.40
2018-05-12T03:53:22.831Z,32.10
2018-05-12T03:54:22.836Z,29.60
2018-05-12T03:55:22.810Z,30.20
2018-05-12T03:56:22.727Z,26.90
2018-05-12T03:57:22.683Z,25.70
2018-05-12T03:58:22.668Z,25.50
2018-05-12T03:59:22.652Z,26.50
2018-05-12T04:00:22.589Z,29.00
2018-05-12T04:01:22.560Z,26.20
2018-05-12T04:02:22.536Z,25.80
2018-05-12T04:03:22.502Z,24.20
2018-05-12T04:04:22.468Z,24.70
2018-05-12T04:05:22.417Z,25.00
2018-05-12T04:06:22.372Z,27.10
2018-05-12T04:07:22.337Z,28.20
2018-05-12T04:08:22.318Z,29.20
2018-05-12T04:09:22.335Z,27.40
2018-05-12T04:10:22.229Z,26.10
2018-05-12T04:11:22.203Z,25.30
2018-05-12T04:12:22.152Z,24.80
2018-05-12T04:13:22.125Z,28.00
2018-05-12T04:14:22.113Z,29.00
2018-05-12T04:15:22.065Z,28.50
2018-05-12T04:16:22.082Z,27.10
2018-05-12T04:17:22.005Z,23.60
2018-05-12T04:18:21.997Z,25.00
2018-05-12T04:19:21.957Z,30.10
2018-05-12T04:20:21.884Z,29.50
2018-05-12T04:21:21.876Z,28.90
2018-05-12T04:22:21.821Z,26.90
2018-05-12T04:23:21.862Z,28.50
2018-05-12T04:24:21.755Z,27.80
2018-05-12T04:25:21.720Z,26.40
2018-05-12T04:26:21.679Z,27.40
2018-05-12T04:27:21.658Z,27.40
2018-05-12T04:28:21.625Z,27.00
2018-05-12T04:29:21.588Z,26.50
2018-05-12T04:30:21.575Z,26.60
2018-05-12T04:31:21.507Z,27.00
2018-05-12T04:32:21.457Z,25.70
2018-05-12T04:33:21.426Z,26.50
2018-05-12T04:34:21.414Z,25.80
2018-05-12T04:35:21.355Z,26.20
2018-05-12T04:36:21.320Z,25.70
2018-05-12T04:37:21.296Z,24.90
2018-05-12T04:38:21.277Z,25.50
2018-05-12T04:39:21.223Z,24.70
2018-05-12T04:40:21.186Z,26.30
2018-05-12T04:41:21.157Z,25.60
2018-05-12T04:42:21.116Z,25.30
2018-05-12T04:43:21.162Z,25.40
2018-05-12T04:44:21.055Z,24.30
2018-05-12T04:45:21.060Z,25.40
2018-05-12T04:46:20.975Z,24.40
2018-05-12T04:47:20.950Z,25.30
2018-05-12T04:48:20.925Z,25.30
2018-05-12T04:49:20.881Z,25.40
2018-05-12T04:50:20.852Z,25.70
2018-05-12T04:51:20.810Z,25.50
2018-05-12T04:52:20.768Z,25.00
2018-05-12T04:53:20.780Z,25.00
2018-05-12T04:54:20.708Z,24.90
2018-05-12T04:55:20.670Z,25.40
2018-05-12T04:56:20.659Z,24.60
2018-05-12T04:57:20.576Z,26.00
2018-05-12T04:58:20.585Z,26.10
2018-05-12T04:59:20.558Z,26.10
2018-05-12T05:00:20.504Z,27.20
2018-05-12T05:01:20.460Z,27.30
2018-05-12T05:02:20.442Z,27.10
2018-05-12T05:03:20.437Z,27.70
2018-05-12T05:04:20.343Z,27.50
2018-05-12T05:05:20.329Z,27.30
2018-05-12T05:06:20.279Z,26.00
2018-05-12T05:07:20.246Z,25.90
2018-05-12T05:08:20.351Z,26.00
2018-05-12T05:09:20.189Z,26.20
2018-05-12T05:10:20.157Z,26.20
2018-05-12T05:11:20.140Z,26.30
2018-05-12T05:12:20.090Z,26.90
2018-05-12T05:13:20.066Z,26.80
2018-05-12T05:14:20.017Z,26.60
2018-05-12T05:15:20.073Z,27.30
2018-05-12T05:16:19.939Z,29.10
2018-05-12T05:17:19.913Z,29.90
2018-05-12T05:18:19.874Z,29.30
2018-05-12T05:19:19.826Z,28.90
2018-05-12T05:20:19.824Z,28.50
2018-05-12T05:21:19.879Z,28.70
2018-05-12T05:22:19.733Z,30.30
2018-05-12T05:23:19.716Z,28.90
2018-05-12T05:24:19.675Z,29.00
2018-05-12T05:25:19.655Z,28.30
2018-05-12T05:26:19.598Z,28.50
2018-05-12T05:27:19.573Z,29.00
2018-05-12T05:28:19.541Z,29.50
2018-05-12T05:29:19.499Z,30.50
2018-05-12T05:30:19.468Z,30.70
2018-05-12T05:31:19.419Z,27.40
2018-05-12T05:32:19.417Z,24.20
2018-05-12T05:33:19.367Z,25.10
2018-05-12T05:34:19.344Z,26.80
2018-05-12T05:35:19.348Z,25.00
2018-05-12T05:36:19.293Z,25.50
2018-05-12T05:37:19.235Z,25.60
2018-05-12T05:38:19.226Z,23.00
2018-05-12T05:39:19.177Z,23.40
2018-05-12T05:40:19.154Z,21.90
2018-05-12T05:41:19.114Z,21.50
2018-05-12T05:42:19.085Z,24.80
2018-05-12T05:43:19.075Z,24.60
2018-05-12T05:44:19.020Z,26.60
2018-05-12T05:45:19.004Z,24.70
2018-05-12T05:46:18.969Z,23.80
2018-05-12T05:47:18.916Z,24.10
2018-05-12T05:48:18.882Z,26.90
2018-05-12T05:49:18.829Z,28.30
2018-05-12T05:50:18.916Z,28.70
2018-05-12T05:51:18.787Z,29.40
2018-05-12T05:52:18.751Z,30.20
2018-05-12T05:53:18.694Z,31.20
2018-05-12T05:54:18.742Z,30.10
2018-05-12T05:55:18.715Z,30.50
2018-05-12T05:56:18.624Z,30.60
2018-05-12T05:57:18.577Z,31.30
2018-05-12T05:58:18.578Z,31.00
2018-05-12T05:59:18.543Z,31.30
2018-05-12T06:00:18.496Z,31.50
2018-05-12T06:01:18.491Z,31.10
2018-05-12T06:02:18.455Z,31.60
2018-05-12T06:03:18.375Z,29.20
2018-05-12T06:04:18.363Z,30.20
2018-05-12T06:05:18.332Z,29.20
2018-05-12T06:06:18.359Z,29.40
2018-05-12T06:07:18.272Z,29.00
2018-05-12T06:08:18.241Z,29.00
2018-05-12T06:09:18.200Z,28.90
2018-05-12T06:10:18.169Z,29.30
2018-05-12T06:11:18.155Z,28.40
2018-05-12T06:12:18.134Z,29.30
2018-05-12T06:13:18.063Z,30.00
2018-05-12T06:14:18.051Z,29.20
2018-05-12T06:15:17.987Z,28.90
2018-05-12T06:16:18.663Z,28.60
2018-05-12T06:17:17.945Z,28.60
2018-05-12T06:18:18.045Z,28.40
2018-05-12T06:19:17.929Z,28.10
2018-05-12T06:20:17.902Z,29.10
2018-05-12T06:21:17.823Z,28.10
2018-05-12T06:22:17.860Z,28.60
2018-05-12T06:23:17.813Z,28.00
2018-05-12T06:24:17.701Z,27.90
2018-05-12T06:25:17.742Z,29.10
2018-05-12T06:26:17.659Z,30.00
2018-05-12T06:27:17.646Z,29.50
2018-05-12T06:28:17.580Z,28.90
2018-05-12T06:29:17.664Z,28.90
2018-05-12T06:30:17.515Z,29.70
2018-05-12T06:31:17.484Z,28.90
2018-05-12T06:32:17.481Z,28.60
2018-05-12T06:33:17.421Z,29.10
2018-05-12T06:34:17.382Z,29.10
2018-05-12T06:35:17.366Z,29.10
2018-05-12T06:36:17.344Z,27.70
2018-05-12T06:37:17.282Z,29.00
2018-05-12T06:38:17.258Z,27.80
2018-05-12T06:39:17.227Z,27.60
2018-05-12T06:40:17.200Z,27.30
2018-05-12T06:41:17.173Z,26.40
2018-05-12T06:42:17.138Z,27.10
2018-05-12T06:43:17.103Z,25.80
2018-05-12T06:44:17.066Z,25.60
2018-05-12T06:45:17.159Z,26.50
2018-05-12T06:46:17.020Z,24.90
2018-05-12T06:47:16.978Z,26.30
2018-05-12T06:48:17.032Z,25.70
2018-05-12T06:49:16.919Z,24.30
2018-05-12T06:50:16.887Z,24.40
2018-05-12T06:51:16.861Z,24.30
2018-05-12T06:52:16.826Z,23.60
2018-05-12T06:53:16.812Z,23.60
2018-05-12T06:54:16.787Z,23.10
2018-05-12T06:55:16.755Z,23.60
2018-05-12T06:56:16.734Z,22.80
2018-05-12T06:57:16.681Z,23.20
2018-05-12T06:58:16.661Z,23.40
2018-05-12T06:59:16.648Z,22.30
2018-05-12T07:00:16.632Z,23.00
2018-05-12T07:01:16.633Z,22.20
2018-05-12T07:02:16.554Z,22.20
2018-05-12T07:03:16.526Z,22.80
2018-05-12T07:04:16.519Z,21.80
2018-05-12T07:05:16.505Z,22.50
2018-05-12T07:06:16.453Z,20.90
2018-05-12T07:07:16.426Z,21.70
2018-05-12T07:08:16.395Z,21.70
2018-05-12T07:09:16.395Z,22.50
2018-05-12T07:10:16.348Z,23.90
2018-05-12T07:11:16.336Z,22.90
2018-05-12T07:12:16.369Z,23.30
2018-05-12T07:13:16.295Z,23.10
2018-05-12T07:14:16.289Z,23.00
2018-05-12T07:15:16.241Z,22.70
2018-05-12T07:16:16.226Z,23.80
2018-05-12T07:17:16.216Z,22.80
2018-05-12T07:18:16.203Z,23.00
2018-05-12T07:19:16.161Z,22.00
2018-05-12T07:20:16.257Z,22.10
2018-05-12T07:21:16.671Z,22.30
2018-05-12T07:22:16.260Z,22.10
2018-05-12T07:23:16.683Z,22.40
2018-05-12T07:24:16.071Z,22.30
2018-05-12T07:25:16.058Z,22.10
2018-05-12T07:26:16.694Z,22.60
2018-05-12T07:27:16.757Z,23.00
2018-05-12T07:28:16.726Z,22.40
2018-05-12T07:29:16.812Z,22.50
2018-05-12T07:30:15.966Z,22.20
2018-05-12T07:31:15.901Z,22.50
2018-05-12T07:32:15.864Z,22.90
2018-05-12T07:33:15.864Z,23.80
2018-05-12T07:34:15.833Z,22.80
2018-05-12T07:35:15.815Z,22.20
2018-05-12T07:36:15.812Z,23.10
2018-05-12T07:37:15.803Z,22.70
2018-05-12T07:38:15.740Z,23.50
2018-05-12T07:39:16.704Z,22.50
2018-05-12T07:40:15.710Z,22.90
2018-05-12T07:41:15.699Z,22.70
2018-05-12T07:42:16.209Z,22.80
2018-05-12T07:43:15.655Z,23.20
2018-05-12T07:44:15.638Z,21.80
2018-05-12T07:45:15.603Z,21.50
2018-05-12T07:46:15.604Z,22.20
2018-05-12T07:47:15.603Z,22.40
2018-05-12T07:48:16.176Z,21.40
2018-05-12T07:49:15.539Z,22.60
2018-05-12T07:50:15.528Z,22.30
2018-05-12T07:51:15.510Z,22.00
2018-05-12T07:52:15.459Z,21.40
2018-05-12T07:53:15.450Z,21.80
2018-05-12T07:54:15.439Z,22.30
2018-05-12T07:55:15.412Z,21.90
2018-05-12T07:56:15.411Z,22.10
2018-05-12T07:57:15.374Z,21.10
2018-05-12T07:58:15.355Z,22.10
2018-05-12T07:59:15.341Z,20.90
2018-05-12T08:00:15.335Z,20.70
2018-05-12T08:01:15.298Z,21.50
2018-05-12T08:02:15.278Z,20.50
2018-05-12T08:03:15.240Z,20.90
2018-05-12T08:04:15.249Z,21.30
2018-05-12T08:05:15.221Z,20.40
2018-05-12T08:06:15.197Z,20.40
2018-05-12T08:07:15.208Z,20.30
2018-05-12T08:08:15.211Z,20.30
2018-05-12T08:09:15.133Z,21.90
2018-05-12T08:10:15.142Z,20.30
2018-05-12T08:11:15.146Z,19.90
2018-05-12T08:12:15.090Z,20.40
2018-05-12T08:13:15.056Z,19.80
2018-05-12T08:14:15.040Z,21.10
2018-05-12T08:15:15.029Z,20.30
2018-05-12T08:16:15.021Z,20.00
2018-05-12T08:17:14.996Z,21.30
2018-05-12T08:18:14.995Z,21.00
2018-05-12T08:19:14.997Z,20.40
2018-05-12T08:20:15.742Z,20.30
2018-05-12T08:21:15.745Z,20.60
2018-05-12T08:22:15.788Z,20.20
2018-05-12T08:23:15.744Z,20.30
2018-05-12T08:24:14.951Z,20.20
2018-05-12T08:25:15.741Z,20.20
2018-05-12T08:26:14.917Z,20.30
2018-05-12T08:27:15.750Z,20.80
2018-05-12T08:28:15.789Z,20.50
2018-05-12T08:29:15.722Z,20.00
2018-05-12T08:30:14.808Z,21.00
2018-05-12T08:31:14.849Z,21.30
2018-05-12T08:32:14.791Z,21.10
2018-05-12T08:33:14.761Z,21.90
2018-05-12T08:34:14.721Z,21.30
2018-05-12T08:35:14.709Z,21.50
2018-05-12T08:36:14.668Z,21.20
2018-05-12T08:37:14.698Z,21.20
2018-05-12T08:38:14.671Z,20.70
2018-05-12T08:39:14.680Z,19.70
2018-05-12T08:40:14.597Z,20.60
2018-05-12T08:41:15.255Z,20.60
2018-05-12T08:42:15.203Z,21.00
2018-05-12T08:43:14.536Z,21.80
2018-05-12T08:44:14.523Z,21.00
2018-05-12T08:45:14.514Z,20.60
2018-05-12T08:46:14.468Z,20.50
2018-05-12T08:47:14.478Z,20.20
2018-05-12T08:48:14.497Z,20.40
2018-05-12T08:49:14.421Z,20.30
2018-05-12T08:50:14.401Z,19.80
2018-05-12T08:51:14.389Z,20.10
2018-05-12T08:52:14.366Z,20.60
2018-05-12T08:53:14.357Z,20.30
2018-05-12T08:54:14.309Z,19.40
2018-05-12T08:55:14.389Z,20.30
2018-05-12T08:56:14.285Z,19.10
2018-05-12T08:57:14.260Z,19.60
2018-05-12T08:58:14.241Z,19.90
2018-05-12T08:59:14.233Z,19.80
2018-05-12T09:00:14.218Z,19.60
2018-05-12T09:01:14.205Z,19.60
2018-05-12T09:02:14.195Z,19.20
2018-05-12T09:03:14.202Z,19.80
2018-05-12T09:04:14.713Z,18.90
2018-05-12T09:05:14.156Z,19.00
2018-05-12T09:06:14.098Z,19.50
2018-05-12T09:07:14.132Z,19.80
2018-05-12T09:08:14.067Z,18.90
2018-05-12T09:09:14.716Z,18.80
2018-05-12T09:10:14.031Z,19.90
2018-05-12T09:11:14.004Z,19.60
2018-05-12T09:12:14.027Z,19.50
2018-05-12T09:13:13.991Z,19.40
2018-05-12T09:14:13.991Z,18.90
2018-05-12T09:15:13.952Z,18.40
2018-05-12T09:16:13.933Z,19.90
2018-05-12T09:17:14.081Z,19.50
2018-05-12T09:18:13.879Z,18.80
2018-05-12T09:19:13.922Z,19.40
2018-05-12T09:20:13.892Z,20.10
2018-05-12T09:21:14.758Z,20.00
2018-05-12T09:22:14.082Z,19.20
2018-05-12T09:23:14.827Z,19.40
2018-05-12T09:24:14.734Z,19.30
2018-05-12T09:25:14.763Z,19.10
2018-05-12T09:26:14.760Z,20.00
2018-05-12T09:27:15.269Z,20.00
2018-05-12T09:28:13.837Z,18.80
2018-05-12T09:29:14.243Z,18.70
2018-05-12T09:30:13.675Z,20.30
2018-05-12T09:31:13.678Z,19.90
2018-05-12T09:32:14.268Z,20.30
2018-05-12T09:33:13.619Z,21.10
2018-05-12T09:34:13.647Z,20.60
2018-05-12T09:35:13.598Z,19.80
2018-05-12T09:36:13.587Z,19.70
2018-05-12T09:37:14.296Z,19.60
2018-05-12T09:38:13.603Z,19.70
2018-05-12T09:39:13.600Z,19.00
2018-05-12T09:40:13.551Z,19.60
2018-05-12T09:41:13.515Z,19.90
2018-05-12T09:42:13.485Z,19.90
2018-05-12T09:43:13.443Z,19.90
2018-05-12T09:44:13.445Z,20.00
2018-05-12T09:45:13.469Z,19.60
2018-05-12T09:46:13.399Z,19.40
2018-05-12T09:47:13.390Z,19.70
2018-05-12T09:48:13.367Z,17.90
2018-05-12T09:49:13.337Z,19.50
2018-05-12T09:50:13.292Z,19.70
2018-05-12T09:51:13.287Z,19.60
2018-05-12T09:52:13.253Z,19.90
2018-05-12T09:53:13.245Z,20.60
2018-05-12T09:54:13.215Z,19.60
2018-05-12T09:55:13.212Z,20.30
2018-05-12T09:56:13.180Z,19.80
2018-05-12T09:57:13.161Z,19.50
2018-05-12T09:58:13.199Z,18.90
2018-05-12T09:59:13.129Z,19.80
2018-05-12T10:00:13.184Z,19.60
2018-05-12T10:01:13.112Z,19.40
2018-05-12T10:02:13.087Z,19.00
2018-05-12T10:03:13.091Z,19.20
2018-05-12T10:04:13.030Z,18.00
2018-05-12T10:05:13.072Z,17.70
2018-05-12T10:06:13.032Z,18.10
2018-05-12T10:07:13.019Z,19.10
2018-05-12T10:08:12.969Z,18.50
2018-05-12T10:09:12.953Z,19.50
2018-05-12T10:10:12.943Z,19.20
2018-05-12T10:11:13.043Z,18.90
2018-05-12T10:12:12.960Z,19.50
2018-05-12T10:13:12.892Z,18.90
2018-05-12T10:14:12.855Z,19.80
2018-05-12T10:15:12.835Z,19.80
2018-05-12T10:16:12.815Z,18.40
2018-05-12T10:17:12.817Z,18.20
2018-05-12T10:18:13.787Z,17.50
2018-05-12T10:19:12.886Z,18.00
2018-05-12T10:20:12.926Z,18.20
2018-05-12T10:21:12.854Z,19.30
2018-05-12T10:22:12.861Z,18.50
2018-05-12T10:23:13.283Z,17.30
2018-05-12T10:24:13.305Z,19.20
2018-05-12T10:25:13.338Z,18.30
2018-05-12T10:26:13.294Z,19.20
2018-05-12T10:27:13.271Z,19.20
2018-05-12T10:28:12.609Z,18.40
2018-05-12T10:29:12.549Z,19.00
2018-05-12T10:30:12.530Z,18.90
2018-05-12T10:31:12.512Z,19.00
2018-05-12T10:32:12.488Z,18.50
2018-05-12T10:33:12.487Z,18.20
2018-05-12T10:34:13.774Z,17.50
2018-05-12T10:35:12.463Z,17.70
2018-05-12T10:36:13.266Z,17.70
2018-05-12T10:37:13.460Z,18.20
2018-05-12T10:38:13.322Z,17.90
2018-05-12T10:39:12.417Z,16.70
2018-05-12T10:40:13.273Z,17.50
2018-05-12T10:41:12.306Z,17.40
2018-05-12T10:42:12.306Z,16.90
2018-05-12T10:43:12.286Z,17.50
2018-05-12T10:44:12.276Z,17.10
2018-05-12T10:45:12.259Z,15.60
2018-05-12T10:46:12.227Z,17.60
2018-05-12T10:47:12.229Z,16.40
2018-05-12T10:48:12.205Z,16.90
2018-05-12T10:49:12.162Z,16.80
2018-05-12T10:50:12.143Z,16.10
2018-05-12T10:51:12.119Z,15.30
2018-05-12T10:52:12.114Z,15.40
2018-05-12T10:53:12.068Z,15.10
2018-05-12T10:54:12.053Z,16.00
2018-05-12T10:55:12.049Z,16.90
2018-05-12T10:56:12.023Z,16.70
2018-05-12T10:57:12.791Z,16.50
2018-05-12T10:58:11.998Z,15.70
2018-05-12T10:59:12.780Z,15.60
2018-05-12T11:00:11.951Z,15.40
2018-05-12T11:01:11.930Z,15.90
2018-05-12T11:02:11.912Z,15.10
2018-05-12T11:03:11.924Z,15.80
2018-05-12T11:04:11.939Z,14.90
2018-05-12T11:05:11.891Z,14.70
2018-05-12T11:06:11.872Z,15.00
2018-05-12T11:07:11.848Z,15.00
2018-05-12T11:08:11.832Z,15.70
2018-05-12T11:09:11.782Z,15.80
2018-05-12T11:10:11.776Z,15.90
2018-05-12T11:11:11.766Z,16.00
2018-05-12T11:12:11.737Z,16.50
2018-05-12T11:13:11.697Z,15.30
2018-05-12T11:14:11.744Z,16.30
2018-05-12T11:15:11.701Z,15.60
2018-05-12T11:16:11.742Z,15.20
2018-05-12T11:17:12.313Z,16.50
2018-05-12T11:18:11.656Z,17.30
2018-05-12T11:19:12.287Z,18.50
2018-05-12T11:20:12.433Z,17.60
2018-05-12T11:21:12.356Z,18.00
2018-05-12T11:22:11.583Z,17.40
2018-05-12T11:23:11.531Z,17.80
2018-05-12T11:24:11.502Z,17.60
2018-05-12T11:25:11.510Z,18.20
2018-05-12T11:26:11.497Z,17.70
2018-05-12T11:27:11.453Z,17.50
2018-05-12T11:28:11.431Z,16.60
2018-05-12T11:29:11.389Z,17.20
2018-05-12T11:30:11.394Z,15.90
2018-05-12T11:31:11.351Z,16.40
2018-05-12T11:32:11.438Z,15.90
2018-05-12T11:33:11.344Z,16.00
2018-05-12T11:34:11.304Z,16.30
2018-05-12T11:35:11.300Z,15.90
2018-05-12T11:36:11.861Z,16.30
2018-05-12T11:37:11.264Z,16.20
2018-05-12T11:38:11.859Z,15.90
2018-05-12T11:39:11.210Z,15.00
2018-05-12T11:40:11.215Z,16.20
2018-05-12T11:41:11.157Z,16.20
2018-05-12T11:42:11.164Z,16.00
2018-05-12T11:43:11.791Z,15.30
2018-05-12T11:44:11.102Z,16.40
2018-05-12T11:45:11.100Z,17.00
2018-05-12T11:46:11.063Z,17.10
2018-05-12T11:47:11.056Z,17.40
2018-05-12T11:48:11.014Z,17.10
2018-05-12T11:49:10.998Z,17.00
2018-05-12T11:50:11.034Z,16.60
2018-05-12T11:51:10.956Z,15.60
2018-05-12T11:52:10.921Z,16.70
2018-05-12T11:53:10.887Z,16.00
2018-05-12T11:54:10.932Z,16.70
2018-05-12T11:55:10.897Z,17.90
2018-05-12T11:56:10.797Z,17.00
2018-05-12T11:57:10.794Z,15.30
2018-05-12T11:58:10.801Z,16.00
2018-05-12T11:59:10.761Z,15.10
2018-05-12T12:00:11.288Z,15.60
2018-05-12T12:01:11.309Z,16.00
2018-05-12T12:02:11.802Z,15.70
2018-05-12T12:03:11.482Z,16.00
2018-05-12T12:04:10.711Z,16.10
2018-05-12T12:05:11.298Z,16.60
2018-05-12T12:06:11.339Z,17.50
2018-05-12T12:07:10.594Z,16.90
2018-05-12T12:08:10.574Z,17.10
2018-05-12T12:09:10.504Z,17.40
2018-05-12T12:10:10.486Z,17.70
2018-05-12T12:11:10.486Z,17.40
2018-05-12T12:12:10.444Z,17.30
2018-05-12T12:13:10.440Z,17.10
2018-05-12T12:14:10.421Z,17.10
2018-05-12T12:15:10.468Z,16.40
2018-05-12T12:16:10.348Z,17.30
2018-05-12T12:17:11.348Z,16.70
2018-05-12T12:18:10.337Z,16.50
2018-05-12T12:19:10.874Z,16.80
2018-05-12T12:20:10.443Z,16.00
2018-05-12T12:21:11.318Z,15.60
2018-05-12T12:22:10.236Z,16.80
2018-05-12T12:23:10.282Z,18.10
2018-05-12T12:24:10.188Z,17.30
2018-05-12T12:25:10.182Z,16.90
2018-05-12T12:26:10.828Z,17.50
2018-05-12T12:27:10.114Z,16.50
2018-05-12T12:28:10.815Z,16.40
2018-05-12T12:29:10.079Z,16.50
2018-05-12T12:30:10.041Z,16.70
2018-05-12T12:31:10.025Z,16.30
2018-05-12T12:32:09.993Z,16.10
2018-05-12T12:33:10.035Z,15.70
2018-05-12T12:34:09.981Z,14.70
2018-05-12T12:35:09.922Z,14.00
2018-05-12T12:36:09.891Z,14.90
2018-05-12T12:37:09.891Z,15.10
2018-05-12T12:38:09.877Z,14.50
2018-05-12T12:39:09.858Z,15.00
2018-05-12T12:40:09.856Z,14.80
2018-05-12T12:41:09.815Z,15.70
2018-05-12T12:42:09.794Z,15.20
2018-05-12T12:43:09.787Z,16.30
2018-05-12T12:44:10.328Z,14.90
2018-05-12T12:45:10.341Z,13.70
2018-05-12T12:46:09.731Z,15.00
2018-05-12T12:47:09.716Z,15.10
2018-05-12T12:48:09.743Z,15.00
2018-05-12T12:49:09.706Z,15.30
2018-05-12T12:50:09.688Z,14.80
2018-05-12T12:51:09.612Z,14.70
2018-05-12T12:52:09.597Z,14.30